Time;durP1;ratioP1;P1;durP2;ratioP2;P2;SDS_P1;SDS_P2;PMS_P1;PMS_P2;Temp;Humidity;BMP_temperature;BMP_pressure;BME280_temperature;BME280_humidity;BME280_pressure;Samples;Min_cycle;Max_cycle;Signal;HPM_P1;HPM_P2
2021/06/24 00:01:52;;;;;;;1.48;1.10;;;;;;;;;;5002521;28;20026;-60
2021/06/24 00:04:18;;;;;;;2.63;1.05;;;;;;;;;;5003117;28;20064;-60
2021/06/24 00:06:43;;;;;;;1.23;1.13;;;;;;;;;;5003578;28;20029;-60
2021/06/24 00:09:10;;;;;;;3.58;1.15;;;;;;;;;;5000532;28;20029;-60
2021/06/24 00:11:35;;;;;;;1.10;1.00;;;;;;;;;;5004322;28;20033;-60
2021/06/24 00:14:01;;;;;;;1.20;1.10;;;;;;;;;;5005047;28;20361;-60
2021/06/24 00:16:27;;;;;;;1.85;1.20;;;;;;;;;;5001052;28;20037;-59
2021/06/24 00:18:53;;;;;;;1.88;1.02;;;;;;;;;;5000028;28;20038;-59
2021/06/24 00:21:19;;;;;;;1.60;1.30;;;;;;;;;;5001379;28;20469;-60
2021/06/24 00:23:45;;;;;;;2.58;1.40;;;;;;;;;;5001142;28;20135;-59
2021/06/24 00:26:10;;;;;;;1.60;1.40;;;;;;;;;;4999191;28;20117;-60
2021/06/24 00:28:36;;;;;;;1.67;1.52;;;;;;;;;;5004660;28;20056;-59
2021/06/24 00:31:01;;;;;;;1.30;1.20;;;;;;;;;;5001059;28;20169;-59
2021/06/24 00:33:27;;;;;;;3.08;1.40;;;;;;;;;;4997058;28;20487;-59
2021/06/24 00:35:53;;;;;;;1.10;1.10;;;;;;;;;;5002122;28;20030;-59
2021/06/24 00:38:18;;;;;;;1.38;1.27;;;;;;;;;;5005160;28;20034;-60
2021/06/24 00:40:44;;;;;;;1.35;1.23;;;;;;;;;;5005020;28;20065;-59
2021/06/24 00:43:12;;;;;;;1.50;1.40;;;;;;;;;;5003372;28;20034;-59
2021/06/24 00:45:38;;;;;;;1.75;1.33;;;;;;;;;;5004197;28;20034;-59
2021/06/24 00:48:06;;;;;;;1.20;1.10;;;;;;;;;;4995339;28;20100;-59
2021/06/24 00:50:31;;;;;;;1.40;1.30;;;;;;;;;;5005861;28;20013;-59
2021/06/24 00:52:57;;;;;;;1.48;1.38;;;;;;;;;;4997823;28;20036;-59
2021/06/24 00:55:40;;;;;;;1.73;1.30;;;;;;;;;;4999074;28;20045;-59
2021/06/24 00:58:20;;;;;;;1.80;1.40;;;;;;;;;;5008058;28;21129;-59
2021/06/24 01:00:47;;;;;;;2.25;1.27;;;;;;;;;;5006194;28;20469;-59
2021/06/24 01:03:14;;;;;;;1.55;1.20;;;;;;;;;;4998357;28;20409;-59
2021/06/24 01:05:40;;;;;;;2.28;1.23;;;;;;;;;;4995731;28;20125;-59
2021/06/24 01:08:07;;;;;;;2.10;1.38;;;;;;;;;;5001857;28;20033;-59
2021/06/24 01:10:32;;;;;;;1.20;1.10;;;;;;;;;;5000895;28;20109;-60
2021/06/24 01:12:58;;;;;;;1.92;1.42;;;;;;;;;;5003898;28;20117;-59
2021/06/24 01:15:25;;;;;;;1.55;1.30;;;;;;;;;;5000544;28;20499;-59
2021/06/24 01:17:51;;;;;;;2.15;1.10;;;;;;;;;;5003023;28;20500;-59
2021/06/24 01:20:21;;;;;;;2.58;1.13;;;;;;;;;;4998281;28;20068;-59
2021/06/24 01:22:46;;;;;;;1.83;1.25;;;;;;;;;;4999719;28;20444;-59
2021/06/24 01:25:12;;;;;;;1.85;1.45;;;;;;;;;;5004542;28;20076;-59
2021/06/24 01:27:37;;;;;;;1.35;1.25;;;;;;;;;;5003764;28;20034;-60
2021/06/24 01:30:03;;;;;;;3.17;1.20;;;;;;;;;;4996679;28;20085;-59
2021/06/24 01:32:29;;;;;;;1.52;1.10;;;;;;;;;;4998726;28;20029;-60
2021/06/24 01:34:55;;;;;;;1.50;1.40;;;;;;;;;;4991998;28;20030;-59
2021/06/24 01:37:22;;;;;;;1.40;1.30;;;;;;;;;;5001385;28;20045;-59
2021/06/24 01:39:47;;;;;;;1.67;1.30;;;;;;;;;;5004775;28;20030;-59
2021/06/24 01:42:14;;;;;;;0.93;0.93;;;;;;;;;;5002921;28;20026;-59
2021/06/24 01:44:39;;;;;;;2.90;1.33;;;;;;;;;;5001266;28;20060;-59
2021/06/24 01:47:11;;;;;;;1.45;1.35;;;;;;;;;;5001761;28;20488;-59
2021/06/24 01:49:38;;;;;;;2.30;1.48;;;;;;;;;;4999476;28;20025;-60
2021/06/24 01:52:03;;;;;;;1.35;1.25;;;;;;;;;;5002834;28;20018;-61
2021/06/24 01:54:29;;;;;;;1.70;1.60;;;;;;;;;;4999938;28;20471;-60
2021/06/24 01:56:54;;;;;;;1.55;1.38;;;;;;;;;;5000226;28;20030;-60
2021/06/24 01:59:19;;;;;;;1.67;1.33;;;;;;;;;;5001559;28;20064;-61
2021/06/24 02:01:45;;;;;;;1.30;1.20;;;;;;;;;;5000964;28;20037;-60
2021/06/24 02:04:11;;;;;;;2.47;1.05;;;;;;;;;;4999157;28;20417;-59
2021/06/24 02:06:37;;;;;;;1.55;1.33;;;;;;;;;;4998484;28;20052;-59
2021/06/24 02:09:03;;;;;;;1.27;1.17;;;;;;;;;;4998256;28;20076;-59
2021/06/24 02:11:29;;;;;;;2.95;1.63;;;;;;;;;;4994550;28;20035;-59
2021/06/24 02:13:54;;;;;;;2.65;1.30;;;;;;;;;;5001563;28;20049;-59
2021/06/24 02:16:20;;;;;;;2.05;1.40;;;;;;;;;;4997831;28;20029;-59
2021/06/24 02:18:45;;;;;;;1.75;1.33;;;;;;;;;;4995093;28;20080;-59
2021/06/24 02:21:11;;;;;;;1.40;1.30;;;;;;;;;;5003225;28;20042;-59
2021/06/24 02:23:36;;;;;;;1.52;1.30;;;;;;;;;;4995761;28;20029;-60
2021/06/24 02:26:02;;;;;;;3.95;1.50;;;;;;;;;;4999281;28;20060;-60
2021/06/24 02:28:27;;;;;;;1.50;1.27;;;;;;;;;;4995403;28;20029;-59
2021/06/24 02:30:53;;;;;;;1.90;1.30;;;;;;;;;;5001644;28;20021;-60
2021/06/24 02:33:19;;;;;;;1.40;1.30;;;;;;;;;;4999533;28;20381;-60
2021/06/24 02:35:55;;;;;;;1.38;1.27;;;;;;;;;;4996856;28;20494;-59
2021/06/24 02:38:20;;;;;;;2.35;1.42;;;;;;;;;;5000950;28;20030;-60
2021/06/24 02:40:46;;;;;;;1.38;1.27;;;;;;;;;;4996471;28;20026;-60
2021/06/24 02:43:11;;;;;;;1.92;1.50;;;;;;;;;;5005198;28;20034;-60
2021/06/24 02:45:37;;;;;;;2.70;1.50;;;;;;;;;;5003215;28;20029;-60
2021/06/24 02:48:02;;;;;;;4.95;1.50;;;;;;;;;;4999325;28;20034;-60
2021/06/24 02:50:28;;;;;;;1.73;1.30;;;;;;;;;;5005209;28;20349;-60
2021/06/24 02:52:53;;;;;;;3.08;1.40;;;;;;;;;;4999051;28;20507;-60
2021/06/24 02:55:18;;;;;;;1.52;1.42;;;;;;;;;;4998389;28;20036;-60
2021/06/24 02:57:45;;;;;;;2.20;1.63;;;;;;;;;;4999365;28;20030;-60
2021/06/24 03:00:12;;;;;;;5.75;1.55;;;;;;;;;;5004966;28;20061;-60
2021/06/24 03:02:38;;;;;;;1.48;1.30;;;;;;;;;;5000779;28;20037;-61
2021/06/24 03:05:05;;;;;;;1.75;1.20;;;;;;;;;;5007613;28;20427;-60
2021/06/24 03:07:31;;;;;;;2.55;1.08;;;;;;;;;;5004797;28;20373;-60
2021/06/24 03:09:56;;;;;;;1.60;1.27;;;;;;;;;;5005224;28;20038;-60
2021/06/24 03:12:22;;;;;;;2.15;1.23;;;;;;;;;;5006463;28;20025;-60
2021/06/24 03:14:47;;;;;;;3.70;1.73;;;;;;;;;;5022862;28;20044;-61
2021/06/24 03:17:12;;;;;;;2.42;1.75;;;;;;;;;;5006596;28;20118;-60
2021/06/24 03:19:38;;;;;;;1.60;1.50;;;;;;;;;;4998745;28;20030;-60
2021/06/24 03:22:04;;;;;;;1.65;1.55;;;;;;;;;;5000611;28;20030;-60
2021/06/24 03:24:29;;;;;;;1.90;1.80;;;;;;;;;;5003038;28;20522;-60
2021/06/24 03:26:54;;;;;;;3.13;1.80;;;;;;;;;;5001473;28;20096;-60
2021/06/24 03:29:20;;;;;;;2.53;1.70;;;;;;;;;;5003723;28;20145;-59
2021/06/24 03:31:45;;;;;;;2.28;1.80;;;;;;;;;;5002965;28;20137;-59
2021/06/24 03:34:11;;;;;;;1.70;1.60;;;;;;;;;;4996966;28;20026;-59
2021/06/24 03:36:36;;;;;;;2.75;1.60;;;;;;;;;;4997521;28;20026;-59
2021/06/24 03:39:03;;;;;;;1.60;1.50;;;;;;;;;;5002203;28;20068;-59
2021/06/24 03:41:28;;;;;;;1.50;1.40;;;;;;;;;;5005143;28;20030;-60
2021/06/24 03:43:55;;;;;;;3.83;1.33;;;;;;;;;;4997559;28;20050;-60
2021/06/24 03:46:22;;;;;;;1.60;1.50;;;;;;;;;;5005187;28;20090;-60
2021/06/24 03:48:48;;;;;;;2.67;1.50;;;;;;;;;;5004148;28;20075;-60
2021/06/24 03:51:14;;;;;;;2.15;1.35;;;;;;;;;;5002018;28;20026;-60
2021/06/24 03:53:40;;;;;;;2.45;1.42;;;;;;;;;;4998638;28;20045;-59
2021/06/24 03:56:05;;;;;;;1.70;1.38;;;;;;;;;;5004381;28;20023;-60
2021/06/24 03:58:31;;;;;;;1.50;1.40;;;;;;;;;;5001669;28;20080;-59
2021/06/24 04:00:57;;;;;;;3.40;1.67;;;;;;;;;;5003706;28;20092;-59
2021/06/24 04:03:23;;;;;;;2.28;1.42;;;;;;;;;;5005900;28;20030;-60
2021/06/24 04:05:48;;;;;;;1.80;1.48;;;;;;;;;;4998881;28;20079;-60
2021/06/24 04:08:14;;;;;;;2.53;1.27;;;;;;;;;;4995606;28;20209;-60
2021/06/24 04:10:39;;;;;;;1.60;1.40;;;;;;;;;;5002878;28;20022;-59
2021/06/24 04:13:05;;;;;;;1.95;1.25;;;;;;;;;;5000029;28;20032;-60
2021/06/24 04:15:35;;;;;;;1.40;1.30;;;;;;;;;;5002093;28;20582;-60
2021/06/24 04:18:03;;;;;;;2.78;1.83;;;;;;;;;;5005951;28;20495;-60
2021/06/24 04:20:30;;;;;;;2.78;1.98;;;;;;;;;;5001349;28;20030;-60
2021/06/24 04:22:56;;;;;;;4.47;1.80;;;;;;;;;;5002258;28;20026;-60
2021/06/24 04:25:21;;;;;;;1.70;1.48;;;;;;;;;;4999703;28;20049;-60
2021/06/24 04:27:47;;;;;;;3.05;1.55;;;;;;;;;;5000017;28;20053;-59
2021/06/24 04:30:14;;;;;;;1.67;1.50;;;;;;;;;;4999257;28;20060;-60
2021/06/24 04:32:40;;;;;;;3.10;2.00;;;;;;;;;;5005484;28;20069;-60
2021/06/24 04:35:06;;;;;;;1.42;1.33;;;;;;;;;;5001986;28;20151;-60
2021/06/24 04:37:32;;;;;;;1.48;1.30;;;;;;;;;;4998311;28;20034;-59
2021/06/24 04:39:57;;;;;;;1.83;1.30;;;;;;;;;;5002513;28;20484;-59
2021/06/24 04:42:23;;;;;;;2.45;1.67;;;;;;;;;;4998928;28;20022;-60
2021/06/24 04:44:49;;;;;;;2.17;1.98;;;;;;;;;;4999817;28;20513;-60
2021/06/24 04:47:15;;;;;;;1.90;1.80;;;;;;;;;;5001189;28;20131;-60
2021/06/24 04:49:41;;;;;;;2.92;1.90;;;;;;;;;;5004332;28;20116;-60
2021/06/24 04:52:07;;;;;;;2.67;1.88;;;;;;;;;;5006385;28;20021;-59
2021/06/24 04:54:32;;;;;;;1.55;1.20;;;;;;;;;;4997428;28;20444;-60
2021/06/24 04:56:58;;;;;;;3.40;1.30;;;;;;;;;;5003218;28;20072;-59
2021/06/24 04:59:23;;;;;;;2.33;1.40;;;;;;;;;;4999796;28;20428;-59
2021/06/24 05:01:49;;;;;;;2.00;1.90;;;;;;;;;;4998944;28;20502;-59
2021/06/24 05:04:14;;;;;;;3.00;2.00;;;;;;;;;;4996388;28;20500;-58
2021/06/24 05:06:41;;;;;;;2.22;2.03;;;;;;;;;;5001035;28;20026;-60
2021/06/24 05:09:06;;;;;;;2.00;1.80;;;;;;;;;;4998072;28;20029;-60
2021/06/24 05:11:32;;;;;;;2.10;1.92;;;;;;;;;;5002763;28;20465;-59
2021/06/24 05:13:57;;;;;;;3.08;2.15;;;;;;;;;;4998642;28;20650;-59
2021/06/24 05:16:23;;;;;;;2.08;1.88;;;;;;;;;;5015429;28;20021;-59
2021/06/24 05:18:48;;;;;;;3.33;1.92;;;;;;;;;;4999681;28;20472;-59
2021/06/24 05:21:14;;;;;;;2.92;2.10;;;;;;;;;;4994113;28;20034;-59
2021/06/24 05:23:42;;;;;;;2.05;1.83;;;;;;;;;;4984747;28;20029;-59
2021/06/24 05:26:07;;;;;;;2.08;1.90;;;;;;;;;;4998775;28;20077;-59
2021/06/24 05:28:33;;;;;;;2.78;1.80;;;;;;;;;;4995284;28;20050;-59
2021/06/24 05:30:58;;;;;;;2.83;2.00;;;;;;;;;;5000012;28;20026;-60
2021/06/24 05:33:24;;;;;;;2.88;2.10;;;;;;;;;;4999606;28;20029;-60
2021/06/24 05:35:49;;;;;;;2.80;1.50;;;;;;;;;;5001759;28;20556;-60
2021/06/24 05:38:16;;;;;;;1.67;1.58;;;;;;;;;;5004897;28;20049;-59
2021/06/24 05:40:44;;;;;;;1.20;1.10;;;;;;;;;;5003750;28;20034;-59
2021/06/24 05:43:09;;;;;;;1.95;1.60;;;;;;;;;;4999011;28;20080;-59
2021/06/24 05:45:35;;;;;;;2.47;1.50;;;;;;;;;;5001351;28;20400;-59
2021/06/24 05:48:00;;;;;;;3.88;2.00;;;;;;;;;;4998578;28;20080;-59
2021/06/24 05:50:26;;;;;;;2.53;2.20;;;;;;;;;;4998632;28;20030;-59
2021/06/24 05:52:55;;;;;;;3.95;2.10;;;;;;;;;;4999039;28;20026;-60
2021/06/24 05:55:47;;;;;;;2.40;2.10;;;;;;;;;;5001283;28;20033;-60
2021/06/24 05:58:09;;;;;;;1.77;1.67;;;;;;;;;;4997322;28;20095;-59
2021/06/24 06:00:35;;;;;;;1.90;1.70;;;;;;;;;;4997570;28;20052;-59
2021/06/24 06:03:00;;;;;;;1.98;1.88;;;;;;;;;;4996657;28;20342;-59
2021/06/24 06:05:26;;;;;;;2.42;1.98;;;;;;;;;;5003642;28;20022;-60
2021/06/24 06:07:52;;;;;;;2.90;2.15;;;;;;;;;;5000402;28;20038;-59
2021/06/24 06:10:17;;;;;;;2.80;1.98;;;;;;;;;;5001104;28;20106;-60
2021/06/24 06:12:42;;;;;;;2.00;1.80;;;;;;;;;;4997374;28;20029;-58
2021/06/24 06:15:08;;;;;;;6.70;2.80;;;;;;;;;;4998023;28;20030;-58
2021/06/24 06:17:34;;;;;;;2.40;2.20;;;;;;;;;;4995472;28;20072;-59
2021/06/24 06:19:59;;;;;;;3.00;2.25;;;;;;;;;;5003405;28;20116;-59
2021/06/24 06:22:25;;;;;;;3.53;2.55;;;;;;;;;;4992705;28;20026;-59
2021/06/24 06:24:50;;;;;;;3.55;2.00;;;;;;;;;;5000238;28;20492;-59
2021/06/24 06:27:16;;;;;;;2.47;2.28;;;;;;;;;;5000377;28;21087;-59
2021/06/24 06:29:41;;;;;;;2.67;2.15;;;;;;;;;;5004808;28;20117;-60
2021/06/24 06:32:07;;;;;;;2.85;2.47;;;;;;;;;;5001602;28;20101;-59
2021/06/24 06:34:32;;;;;;;2.70;2.50;;;;;;;;;;5007156;28;20125;-60
2021/06/24 06:36:57;;;;;;;3.50;2.35;;;;;;;;;;5004600;28;20042;-59
2021/06/24 06:39:23;;;;;;;3.05;2.33;;;;;;;;;;5006316;28;20042;-60
2021/06/24 06:41:48;;;;;;;3.05;1.98;;;;;;;;;;5004937;28;20022;-60
2021/06/24 06:44:14;;;;;;;2.25;2.05;;;;;;;;;;5006961;28;20084;-59
2021/06/24 06:46:39;;;;;;;3.63;2.13;;;;;;;;;;5002222;28;20083;-58
2021/06/24 06:49:05;;;;;;;2.20;2.00;;;;;;;;;;4999085;28;20031;-60
2021/06/24 06:51:30;;;;;;;2.30;2.00;;;;;;;;;;5004431;28;20380;-60
2021/06/24 06:53:55;;;;;;;2.75;1.80;;;;;;;;;;5004353;28;20120;-61
2021/06/24 06:56:21;;;;;;;2.30;1.85;;;;;;;;;;5019984;28;20037;-61
2021/06/24 06:58:46;;;;;;;1.83;1.73;;;;;;;;;;5001998;28;20037;-60
2021/06/24 07:01:12;;;;;;;2.25;2.15;;;;;;;;;;4985389;28;20037;-60
2021/06/24 07:03:37;;;;;;;3.70;2.40;;;;;;;;;;5003835;28;20267;-60
2021/06/24 07:06:03;;;;;;;2.47;2.10;;;;;;;;;;4999284;28;20041;-60
2021/06/24 07:08:28;;;;;;;4.10;2.22;;;;;;;;;;5004136;28;20666;-60
2021/06/24 07:10:53;;;;;;;3.97;3.53;;;;;;;;;;5004844;28;20036;-60
2021/06/24 07:13:19;;;;;;;3.53;2.40;;;;;;;;;;4997053;28;20165;-60
2021/06/24 07:15:44;;;;;;;2.67;2.47;;;;;;;;;;5001011;28;20044;-60
2021/06/24 07:18:12;;;;;;;2.35;1.67;;;;;;;;;;5000672;28;20383;-60
2021/06/24 07:20:38;;;;;;;3.42;2.25;;;;;;;;;;4998751;28;20049;-60
2021/06/24 07:23:03;;;;;;;1.90;1.80;;;;;;;;;;5000334;28;20527;-60
2021/06/24 07:25:29;;;;;;;2.25;2.00;;;;;;;;;;5002839;28;20037;-60
2021/06/24 07:27:54;;;;;;;1.65;1.55;;;;;;;;;;5005862;28;20034;-60
2021/06/24 07:30:21;;;;;;;2.55;1.85;;;;;;;;;;4999907;28;20042;-60
2021/06/24 07:32:46;;;;;;;1.90;1.75;;;;;;;;;;5003778;28;20036;-60
2021/06/24 07:35:12;;;;;;;1.90;1.80;;;;;;;;;;5002486;28;20030;-60
2021/06/24 07:37:37;;;;;;;2.30;2.10;;;;;;;;;;5000726;28;20420;-60
2021/06/24 07:40:04;;;;;;;2.58;2.38;;;;;;;;;;5000748;28;20036;-60
2021/06/24 07:42:30;;;;;;;2.75;2.25;;;;;;;;;;5004277;28;20025;-60
2021/06/24 07:44:55;;;;;;;2.50;2.22;;;;;;;;;;4995207;28;20373;-59
2021/06/24 07:47:21;;;;;;;2.33;2.13;;;;;;;;;;5005124;28;20025;-59
2021/06/24 07:49:47;;;;;;;4.15;2.60;;;;;;;;;;5004738;28;20116;-60
2021/06/24 07:52:13;;;;;;;3.38;2.10;;;;;;;;;;5001426;28;20021;-59
2021/06/24 07:54:38;;;;;;;2.38;2.17;;;;;;;;;;5001996;28;20107;-59
2021/06/24 07:57:04;;;;;;;2.70;1.73;;;;;;;;;;5004828;28;20033;-60
2021/06/24 07:59:29;;;;;;;3.83;1.77;;;;;;;;;;5000941;28;20403;-59
2021/06/24 08:01:55;;;;;;;2.17;1.65;;;;;;;;;;5000700;28;20025;-59
2021/06/24 08:04:20;;;;;;;4.43;2.83;;;;;;;;;;4994866;28;20488;-60
2021/06/24 08:06:46;;;;;;;4.88;2.42;;;;;;;;;;5001523;28;20033;-60
2021/06/24 08:09:14;;;;;;;4.07;2.50;;;;;;;;;;5001179;28;20033;-60
2021/06/24 08:11:39;;;;;;;2.50;2.30;;;;;;;;;;5000074;28;20480;-61
2021/06/24 08:14:05;;;;;;;3.03;2.33;;;;;;;;;;4999500;28;20036;-61
2021/06/24 08:16:31;;;;;;;3.25;3.00;;;;;;;;;;5002424;28;20033;-59
2021/06/24 08:18:56;;;;;;;3.22;2.70;;;;;;;;;;5007335;28;20112;-60
2021/06/24 08:21:21;;;;;;;2.67;2.47;;;;;;;;;;4997882;28;20038;-59
2021/06/24 08:23:47;;;;;;;3.55;2.30;;;;;;;;;;5000569;28;20018;-60
2021/06/24 08:26:12;;;;;;;3.10;2.47;;;;;;;;;;5005177;28;20119;-60
2021/06/24 08:28:38;;;;;;;3.85;2.15;;;;;;;;;;5003503;28;20038;-60
2021/06/24 08:31:05;;;;;;;2.40;2.20;;;;;;;;;;4997542;28;20022;-59
2021/06/24 08:33:30;;;;;;;2.63;2.10;;;;;;;;;;5000128;28;20516;-59
2021/06/24 08:35:55;;;;;;;2.50;2.30;;;;;;;;;;5006114;28;20121;-60
2021/06/24 08:38:21;;;;;;;2.65;2.45;;;;;;;;;;4999232;28;20022;-60
2021/06/24 08:40:46;;;;;;;3.35;2.50;;;;;;;;;;4998640;28;20424;-60
2021/06/24 08:43:12;;;;;;;2.92;2.42;;;;;;;;;;5001257;28;20085;-59
2021/06/24 08:45:39;;;;;;;7.45;2.47;;;;;;;;;;4999993;28;20018;-60
2021/06/24 08:48:11;;;;;;;3.88;2.30;;;;;;;;;;5003084;28;20045;-59
2021/06/24 08:50:37;;;;;;;5.22;2.38;;;;;;;;;;4997403;28;20050;-60
2021/06/24 08:53:02;;;;;;;3.40;2.13;;;;;;;;;;4998560;28;20069;-59
2021/06/24 08:55:36;;;;;;;3.47;2.40;;;;;;;;;;4991819;28;20037;-60
2021/06/24 08:58:02;;;;;;;3.50;2.40;;;;;;;;;;4998929;28;20092;-60
2021/06/24 09:00:28;;;;;;;2.78;2.50;;;;;;;;;;5002246;28;20108;-60
2021/06/24 09:02:54;;;;;;;2.88;2.67;;;;;;;;;;4996263;28;20644;-60
2021/06/24 09:05:20;;;;;;;2.63;2.42;;;;;;;;;;4995484;28;20038;-59
2021/06/24 09:07:51;;;;;;;2.63;2.42;;;;;;;;;;5018293;28;20554;-59
2021/06/24 09:10:18;;;;;;;2.63;1.98;;;;;;;;;;5000432;28;20041;-60
2021/06/24 09:12:55;;;;;;;1.67;1.50;;;;;;;;;;4996797;28;20033;-60
2021/06/24 09:15:24;;;;;;;4.07;2.00;;;;;;;;;;5003806;28;20095;-59
2021/06/24 09:17:50;;;;;;;2.00;1.90;;;;;;;;;;4998241;28;20140;-59
2021/06/24 09:20:19;;;;;;;2.05;1.90;;;;;;;;;;4999543;28;20056;-60
2021/06/24 09:23:04;;;;;;;2.17;1.95;;;;;;;;;;4997762;28;20571;-59
2021/06/24 09:25:29;;;;;;;1.80;1.70;;;;;;;;;;5000510;28;20520;-59
2021/06/24 09:27:55;;;;;;;2.83;2.08;;;;;;;;;;5002351;28;20044;-59
2021/06/24 09:30:28;;;;;;;2.20;2.00;;;;;;;;;;5005873;28;20480;-59
2021/06/24 09:32:54;;;;;;;2.00;1.90;;;;;;;;;;5000212;28;20029;-59
2021/06/24 09:35:24;;;;;;;2.15;2.05;;;;;;;;;;5005330;28;20068;-59
2021/06/24 09:38:11;;;;;;;1.90;1.80;;;;;;;;;;5000820;28;20037;-59
2021/06/24 09:40:45;;;;;;;2.70;1.80;;;;;;;;;;5013860;28;20030;-59
2021/06/24 09:43:14;;;;;;;2.72;2.03;;;;;;;;;;5002947;28;20040;-59
2021/06/24 09:45:39;;;;;;;2.42;2.13;;;;;;;;;;5003054;28;20038;-59
2021/06/24 09:48:12;;;;;;;2.40;2.15;;;;;;;;;;4992464;28;20066;-59
2021/06/24 09:50:38;;;;;;;2.25;2.05;;;;;;;;;;5002989;28;20060;-59
2021/06/24 09:53:12;;;;;;;2.47;2.03;;;;;;;;;;4993070;28;20022;-59
2021/06/24 09:55:38;;;;;;;2.22;2.00;;;;;;;;;;5002480;28;20028;-59
2021/06/24 09:58:14;;;;;;;2.05;1.95;;;;;;;;;;5004166;28;20104;-59
2021/06/24 10:00:53;;;;;;;4.32;2.60;;;;;;;;;;4996796;28;20037;-59
2021/06/24 10:03:19;;;;;;;4.13;2.00;;;;;;;;;;4998450;28;20403;-60
2021/06/24 10:05:46;;;;;;;2.33;2.13;;;;;;;;;;4997478;28;20037;-60
2021/06/24 10:08:13;;;;;;;2.00;1.90;;;;;;;;;;4999944;28;20190;-60
2021/06/24 10:10:41;;;;;;;3.50;2.25;;;;;;;;;;5003414;28;20034;-60
2021/06/24 10:13:08;;;;;;;2.45;1.90;;;;;;;;;;5006110;28;20555;-60
2021/06/24 10:15:34;;;;;;;2.40;2.08;;;;;;;;;;5007117;28;20064;-60
2021/06/24 10:18:00;;;;;;;1.73;1.63;;;;;;;;;;5005967;28;20025;-60
2021/06/24 10:20:29;;;;;;;2.28;2.08;;;;;;;;;;5007738;28;20026;-60
2021/06/24 10:23:03;;;;;;;1.83;1.73;;;;;;;;;;5006497;28;20037;-60
2021/06/24 10:25:29;;;;;;;2.70;2.30;;;;;;;;;;5003691;28;20037;-60
2021/06/24 10:27:56;;;;;;;2.20;2.00;;;;;;;;;;5003427;28;20523;-60
2021/06/24 10:30:24;;;;;;;2.13;1.92;;;;;;;;;;5001470;28;20030;-60
2021/06/24 10:33:10;;;;;;;2.20;1.80;;;;;;;;;;5005943;28;20392;-60
2021/06/24 10:35:52;;;;;;;2.58;2.10;;;;;;;;;;5006692;28;20153;-60
2021/06/24 10:38:18;;;;;;;2.88;2.10;;;;;;;;;;4998430;28;20499;-60
2021/06/24 10:40:54;;;;;;;2.58;1.92;;;;;;;;;;5005961;28;20489;-60
2021/06/24 10:43:22;;;;;;;2.13;1.95;;;;;;;;;;4998459;28;20021;-61
2021/06/24 10:45:48;;;;;;;1.98;1.88;;;;;;;;;;5020748;28;20471;-60
2021/06/24 10:48:31;;;;;;;1.98;1.83;;;;;;;;;;5007599;28;20263;-60
2021/06/24 10:50:58;;;;;;;2.20;2.00;;;;;;;;;;5004223;28;20466;-60
2021/06/24 10:53:23;;;;;;;2.10;2.00;;;;;;;;;;5001802;28;20064;-60
2021/06/24 10:55:50;;;;;;;2.10;2.00;;;;;;;;;;5003577;28;20428;-60
2021/06/24 10:58:19;;;;;;;2.10;1.90;;;;;;;;;;5000669;28;20516;-60
2021/06/24 11:01:02;;;;;;;3.78;2.20;;;;;;;;;;5007620;28;20092;-60
2021/06/24 11:03:31;;;;;;;1.90;1.80;;;;;;;;;;5004260;28;20086;-61
2021/06/24 11:06:10;;;;;;;2.15;1.95;;;;;;;;;;5003908;28;20030;-59
2021/06/24 11:08:36;;;;;;;2.25;2.05;;;;;;;;;;4998260;28;20404;-59
2021/06/24 11:11:08;;;;;;;8.88;8.18;;;;;;;;;;5002594;28;20473;-59
2021/06/24 11:13:36;;;;;;;5.47;4.97;;;;;;;;;;5001713;28;20087;-60
2021/06/24 11:16:17;;;;;;;2.72;2.53;;;;;;;;;;5006904;28;20065;-59
2021/06/24 11:18:53;;;;;;;108.18;96.53;;;;;;;;;;5002002;28;20108;-59
2021/06/24 11:21:29;;;;;;;70.38;63.10;;;;;;;;;;5006946;28;20038;-60
2021/06/24 11:24:00;;;;;;;128.68;108.32;;;;;;;;;;5002121;28;20038;-61
2021/06/24 11:26:25;;;;;;;19.98;18.10;;;;;;;;;;5001957;28;20033;-60
2021/06/24 11:29:07;;;;;;;96.78;87.45;;;;;;;;;;5005847;28;20055;-61
2021/06/24 11:31:32;;;;;;;59.35;53.53;;;;;;;;;;4999235;28;20480;-60
2021/06/24 11:34:08;;;;;;;24.10;21.55;;;;;;;;;;5006979;28;20029;-60
2021/06/24 11:36:34;;;;;;;4.75;3.70;;;;;;;;;;4998957;28;20045;-60
2021/06/24 11:39:00;;;;;;;4.50;3.80;;;;;;;;;;5003774;28;20033;-59
2021/06/24 11:41:25;;;;;;;13.40;10.68;;;;;;;;;;4994507;28;20460;-61
2021/06/24 11:44:05;;;;;;;9.48;8.63;;;;;;;;;;4999292;28;20083;-60
2021/06/24 11:46:33;;;;;;;9.15;8.05;;;;;;;;;;5001136;28;20423;-61
2021/06/24 12:05:10;;;;;;;2.47;1.90;;;;;;;;;;4999393;28;20037;-61
2021/06/24 12:07:37;;;;;;;2.15;1.77;;;;;;;;;;4997843;28;20032;-61
2021/06/24 12:10:04;;;;;;;1.40;1.30;;;;;;;;;;5001400;28;20032;-61
2021/06/24 12:12:31;;;;;;;1.75;1.60;;;;;;;;;;5001657;28;20110;-61
2021/06/24 12:14:58;;;;;;;2.85;2.65;;;;;;;;;;4999535;28;20029;-61
2021/06/24 12:17:26;;;;;;;2.58;1.17;;;;;;;;;;5005792;28;20030;-61
2021/06/24 12:20:08;;;;;;;2.22;1.98;;;;;;;;;;4994027;28;20113;-60
2021/06/24 12:22:39;;;;;;;2.28;2.08;;;;;;;;;;4996805;28;20109;-61
2021/06/24 12:25:06;;;;;;;2.83;2.40;;;;;;;;;;5001763;28;20029;-61
2021/06/24 12:27:34;;;;;;;2.95;2.50;;;;;;;;;;5002185;28;20021;-61
2021/06/24 12:30:15;;;;;;;4.90;3.50;;;;;;;;;;5001623;28;20029;-61
2021/06/24 12:33:05;;;;;;;1.52;1.38;;;;;;;;;;4996912;28;20036;-62
2021/06/24 12:35:39;;;;;;;1.73;1.30;;;;;;;;;;5001533;28;20061;-61
2021/06/24 12:38:10;;;;;;;1.45;1.23;;;;;;;;;;4998611;28;20029;-62
2021/06/24 12:40:37;;;;;;;1.45;1.27;;;;;;;;;;4999561;28;20041;-62
2021/06/24 12:43:03;;;;;;;1.52;1.42;;;;;;;;;;5005954;28;20030;-62
2021/06/24 12:45:32;;;;;;;1.50;1.40;;;;;;;;;;4995407;28;20037;-62
2021/06/24 12:47:58;;;;;;;1.80;1.30;;;;;;;;;;5018716;28;20029;-62
2021/06/24 12:50:29;;;;;;;6.20;1.60;;;;;;;;;;4999643;28;20030;-62
2021/06/24 12:52:59;;;;;;;1.70;1.40;;;;;;;;;;5002104;28;20018;-62
2021/06/24 12:55:38;;;;;;;1.83;1.45;;;;;;;;;;4999297;28;20080;-62
2021/06/24 12:58:12;;;;;;;2.85;1.60;;;;;;;;;;4997455;28;20626;-62
2021/06/24 13:00:39;;;;;;;1.70;1.60;;;;;;;;;;5004119;28;20056;-61
2021/06/24 13:03:05;;;;;;;1.80;1.70;;;;;;;;;;5002569;28;20103;-62
2021/06/24 13:05:34;;;;;;;2.08;1.70;;;;;;;;;;5003988;28;20064;-62
2021/06/24 13:08:24;;;;;;;1.65;1.55;;;;;;;;;;5001413;28;20030;-62
2021/06/24 13:10:50;;;;;;;1.63;1.23;;;;;;;;;;5002966;28;20144;-62
2021/06/24 13:13:28;;;;;;;1.67;1.50;;;;;;;;;;4993919;28;20061;-62
2021/06/24 13:15:54;;;;;;;2.47;1.70;;;;;;;;;;5002692;28;20025;-62
2021/06/24 13:18:20;;;;;;;1.83;1.15;;;;;;;;;;5000896;28;20049;-62
2021/06/24 13:20:59;;;;;;;1.80;1.30;;;;;;;;;;5000400;28;20038;-62
2021/06/24 13:23:35;;;;;;;1.30;1.20;;;;;;;;;;4995249;28;20283;-62
2021/06/24 13:26:19;;;;;;;1.30;1.20;;;;;;;;;;4999262;28;20314;-62
2021/06/24 13:28:56;;;;;;;1.65;1.10;;;;;;;;;;4993928;28;20088;-62
2021/06/24 13:31:24;;;;;;;1.58;0.98;;;;;;;;;;5004726;28;20029;-62
2021/06/24 13:33:49;;;;;;;1.35;0.90;;;;;;;;;;5000720;28;20022;-62
2021/06/24 13:36:23;;;;;;;1.10;1.00;;;;;;;;;;4998134;28;20042;-62
2021/06/24 13:39:00;;;;;;;1.33;1.08;;;;;;;;;;5000244;28;20034;-62
2021/06/24 13:41:33;;;;;;;2.60;0.80;;;;;;;;;;4994310;28;20108;-62
2021/06/24 13:44:08;;;;;;;1.15;0.82;;;;;;;;;;4999288;28;20068;-62
2021/06/24 13:46:35;;;;;;;0.90;0.90;;;;;;;;;;5000354;28;20522;-61
2021/06/24 13:49:00;;;;;;;0.80;0.80;;;;;;;;;;4995459;28;20043;-61
2021/06/24 13:51:26;;;;;;;0.70;0.70;;;;;;;;;;4999057;28;20030;-61
2021/06/24 13:54:22;;;;;;;2.28;0.70;;;;;;;;;;4999894;28;20044;-61
2021/06/24 13:56:50;;;;;;;0.70;0.70;;;;;;;;;;4993955;28;20161;-62
2021/06/24 13:59:16;;;;;;;0.70;0.70;;;;;;;;;;5001582;28;20389;-61
2021/06/24 14:01:47;;;;;;;1.90;0.80;;;;;;;;;;4998923;28;20050;-64
2021/06/24 14:04:14;;;;;;;0.75;0.75;;;;;;;;;;4998125;28;20031;-61
2021/06/24 14:06:40;;;;;;;0.80;0.68;;;;;;;;;;4999587;28;20021;-61
2021/06/24 14:09:12;;;;;;;0.73;0.57;;;;;;;;;;4998604;28;20034;-63
2021/06/24 14:11:41;;;;;;;0.75;0.50;;;;;;;;;;4997902;28;20022;-62
2021/06/24 14:14:07;;;;;;;1.30;0.70;;;;;;;;;;5001609;28;20450;-62
2021/06/24 14:16:33;;;;;;;0.63;0.60;;;;;;;;;;5000209;28;20033;-62
2021/06/24 14:18:59;;;;;;;1.05;0.63;;;;;;;;;;5001183;28;20026;-61
2021/06/24 14:21:25;;;;;;;0.70;0.60;;;;;;;;;;4999787;28;20067;-62
2021/06/24 14:23:54;;;;;;;0.60;0.50;;;;;;;;;;4996431;28;20041;-62
2021/06/24 14:26:21;;;;;;;0.60;0.60;;;;;;;;;;5005826;28;20171;-62
2021/06/24 14:28:46;;;;;;;0.65;0.55;;;;;;;;;;5002820;28;20025;-62
2021/06/24 14:31:12;;;;;;;2.38;0.70;;;;;;;;;;5001454;28;20106;-62
2021/06/24 14:33:38;;;;;;;1.20;0.60;;;;;;;;;;4995635;28;20037;-62
2021/06/24 14:36:05;;;;;;;1.95;0.60;;;;;;;;;;4998161;28;20493;-62
2021/06/24 14:38:31;;;;;;;2.13;0.73;;;;;;;;;;4994230;28;20045;-62
2021/06/24 14:40:57;;;;;;;0.50;0.50;;;;;;;;;;5000753;28;20032;-61
2021/06/24 14:43:24;;;;;;;0.80;0.80;;;;;;;;;;4995595;28;20071;-61
2021/06/24 14:45:54;;;;;;;1.30;0.50;;;;;;;;;;4999027;28;20026;-62
2021/06/24 14:48:21;;;;;;;2.33;0.98;;;;;;;;;;4999047;28;20034;-63
2021/06/24 14:50:46;;;;;;;2.30;0.80;;;;;;;;;;5003550;28;20220;-61
2021/06/24 14:53:13;;;;;;;2.33;0.70;;;;;;;;;;4995903;28;20457;-60
2021/06/24 14:55:39;;;;;;;3.80;0.68;;;;;;;;;;5000451;28;20566;-61
2021/06/24 14:58:05;;;;;;;1.33;0.85;;;;;;;;;;5006518;28;20243;-61
2021/06/24 15:00:33;;;;;;;1.23;0.98;;;;;;;;;;5009107;28;20125;-61
2021/06/24 15:02:59;;;;;;;2.38;1.15;;;;;;;;;;5004568;28;20025;-61